메인 페이지
METAR-TAF:

METAR-TAF

공항 :

Imperatriz, 마라냥, 브라질

위도: 05-32S, 경도: 047-30W, 고도: 123m

현재 날씨관측

예보는 1 시간 17분 전, 21:00시(UTC)에 발표되었습니다.
5kt
온도 33°C
습도 46%
기압 1012 hPa
시정 10km 이상
1500m 미만 상공 구름 및 적란운 없음

METAR: SBIZ 202100Z 10005KT CAVOK 33/20 Q1012

시각: 19:17 (22:17 UTC)

예보

예보는 7 시간 24분 전, 14:53시(UTC)에 발표되었습니다.
예보 대상 시간: 20일 18시부터 21일 06시까지 (UTC)
5kt
시정 10km 이상
고도 2500ft 상공 구름 조금
전환 중
20일 21시부터 20일 23시까지 (UTC)
kt

TAF: SBIZ 201453Z 2018/2106 10005KT 9999 FEW025 TX35/2018Z TN24/2106Z BECMG 2021/2023 00000KT RMK PGU

4,000개 이상의 공항 관측 자료 및 예보 (METAR 및 TAF 보고).

지도상에서 검색 가능한 기상관측소가 노란 점과 빨간 점으로 표시되어 있습니다.

기상관측소 명을 보려면 표시 위로 마우스를 이동하세요.

날씨 관측과 예보를 보려면 클릭하세요.

지도 변경 : 확대하려면 엑스 표시가 있는 녹색 버튼, 축소하려면 빼기 표시가 있는 녹색 버튼, 다음 페이지의 지도를 보려면 녹색 화살표를 클릭하세요.


METAR-TAF: